NKS164 KFLL-KEYW
Flight info
| Callsign | NKS164 |
|---|---|
| Flight time | 0h 42m |
| Altitude | 26000 |
| Route | MAYNR3 MAYNR FNTSY FNTSY1 |
| Aircraft | A320/M-SDE3FGHIRWY/LB1 |
Departure
| Time | 2026-05-04 04:25 |
|---|---|
| Airport | Fort Lauderdale Hollywood International Airport (KFLL) |
Arrival
| Time | 2026-05-04 05:07 |
|---|---|
| Airport | Key West International Airport (KEYW) |
| Time | Latitude | Longitude | Altitude | Speed | Heading |
|---|---|---|---|---|---|
| 2026-05-04 04:12 | 26.06885 | -80.14516 | 16 ft | 0 kts | 0° |
| 2026-05-04 04:13 | 26.06844 | -80.14516 | 18 ft | 4 kts | 355° |
| 2026-05-04 04:13 | 26.06823 | -80.14508 | 16 ft | 4 kts | 297° |
| 2026-05-04 04:14 | 26.06818 | -80.14482 | 16 ft | 4 kts | 270° |
| 2026-05-04 04:14 | 26.06818 | -80.14458 | 16 ft | 3 kts | 270° |
| 2026-05-04 04:14 | 26.06818 | -80.14440 | 16 ft | 0 kts | 270° |
| 2026-05-04 04:16 | 26.06818 | -80.14449 | 16 ft | 2 kts | 270° |
| 2026-05-04 04:17 | 26.06819 | -80.14469 | 16 ft | 3 kts | 271° |
| 2026-05-04 04:17 | 26.06819 | -80.14493 | 16 ft | 3 kts | 271° |
| 2026-05-04 04:17 | 26.06820 | -80.14520 | 16 ft | 4 kts | 271° |
| 2026-05-04 04:17 | 26.06820 | -80.14552 | 16 ft | 4 kts | 272° |
| 2026-05-04 04:18 | 26.06830 | -80.14600 | 18 ft | 10 kts | 298° |
| 2026-05-04 04:18 | 26.06899 | -80.14669 | 16 ft | 15 kts | 323° |
| 2026-05-04 04:18 | 26.06980 | -80.14745 | 16 ft | 16 kts | 319° |
| 2026-05-04 04:18 | 26.07065 | -80.14827 | 18 ft | 17 kts | 313° |
| 2026-05-04 04:19 | 26.07149 | -80.14931 | 16 ft | 19 kts | 313° |
| 2026-05-04 04:19 | 26.07146 | -80.15023 | 17 ft | 13 kts | 256° |
| 2026-05-04 04:19 | 26.07190 | -80.15109 | 18 ft | 15 kts | 313° |
| 2026-05-04 04:19 | 26.07210 | -80.15223 | 16 ft | 17 kts | 270° |
| 2026-05-04 04:20 | 26.07282 | -80.15300 | 16 ft | 18 kts | 360° |
| 2026-05-04 04:20 | 26.07415 | -80.15299 | 16 ft | 20 kts | 0° |
| 2026-05-04 04:20 | 26.07549 | -80.15317 | 16 ft | 17 kts | 314° |
| 2026-05-04 04:20 | 26.07564 | -80.15456 | 16 ft | 20 kts | 270° |
| 2026-05-04 04:21 | 26.07566 | -80.15617 | 16 ft | 22 kts | 270° |
| 2026-05-04 04:21 | 26.07567 | -80.15797 | 16 ft | 24 kts | 270° |
| 2026-05-04 04:21 | 26.07567 | -80.15993 | 17 ft | 26 kts | 270° |
| 2026-05-04 04:21 | 26.07569 | -80.16204 | 17 ft | 28 kts | 270° |
| 2026-05-04 04:22 | 26.07570 | -80.16416 | 17 ft | 16 kts | 270° |
| 2026-05-04 04:22 | 26.07571 | -80.16515 | 17 ft | 14 kts | 270° |
| 2026-05-04 04:22 | 26.07576 | -80.16624 | 16 ft | 13 kts | 289° |
| 2026-05-04 04:22 | 26.07615 | -80.16644 | 17 ft | 2 kts | 7° |
| 2026-05-04 04:23 | 26.07650 | -80.16642 | 18 ft | 6 kts | 3° |
| 2026-05-04 04:23 | 26.07692 | -80.16623 | 18 ft | 8 kts | 53° |
| 2026-05-04 04:23 | 26.07695 | -80.16583 | 18 ft | 0 kts | 91° |
| 2026-05-04 04:24 | 26.07694 | -80.16458 | 20 ft | 48 kts | 90° |
| 2026-05-04 04:24 | 26.07690 | -80.15827 | 19 ft | 112 kts | 90° |
| 2026-05-04 04:24 | 26.07685 | -80.14768 | 23 ft | 159 kts | 90° |
| 2026-05-04 04:24 | 26.07670 | -80.13505 | 586 ft | 162 kts | 90° |
| 2026-05-04 04:25 | 26.07632 | -80.12241 | 1220 ft | 166 kts | 93° |
| 2026-05-04 04:25 | 26.07585 | -80.10915 | 1633 ft | 182 kts | 90° |
| 2026-05-04 04:25 | 26.07617 | -80.09421 | 1920 ft | 206 kts | 88° |
| 2026-05-04 04:25 | 26.07673 | -80.07740 | 2280 ft | 230 kts | 89° |
| 2026-05-04 04:26 | 26.07727 | -80.05873 | 2699 ft | 254 kts | 89° |
| 2026-05-04 04:26 | 26.07772 | -80.03829 | 3287 ft | 270 kts | 90° |
| 2026-05-04 04:26 | 26.07810 | -80.01709 | 4155 ft | 277 kts | 90° |
| 2026-05-04 04:26 | 26.07726 | -79.99556 | 5027 ft | 282 kts | 105° |
| 2026-05-04 04:27 | 26.06787 | -79.97670 | 5813 ft | 282 kts | 140° |
| 2026-05-04 04:27 | 26.05094 | -79.96667 | 6628 ft | 277 kts | 174° |
| 2026-05-04 04:27 | 26.03219 | -79.96853 | 7430 ft | 272 kts | 203° |
| 2026-05-04 04:27 | 26.01537 | -79.97799 | 8285 ft | 272 kts | 215° |
| 2026-05-04 04:28 | 25.99963 | -79.98969 | 9151 ft | 273 kts | 218° |
| 2026-05-04 04:28 | 25.98387 | -80.00173 | 9991 ft | 277 kts | 217° |
| 2026-05-04 04:28 | 25.96728 | -80.01373 | 10408 ft | 296 kts | 215° |
| 2026-05-04 04:28 | 25.95127 | -80.02457 | 10657 ft | 314 kts | 213° |
| 2026-05-04 04:29 | 25.94453 | -80.02892 | 10839 ft | 317 kts | 213° |
| 2026-05-04 04:29 | 25.92504 | -80.04098 | 11489 ft | 323 kts | 211° |
| 2026-05-04 04:30 | 25.90511 | -80.05277 | 12199 ft | 326 kts | 211° |
| 2026-05-04 04:30 | 25.88519 | -80.06429 | 12893 ft | 329 kts | 210° |
| 2026-05-04 04:30 | 25.86482 | -80.07599 | 13600 ft | 331 kts | 210° |
| 2026-05-04 04:30 | 25.84428 | -80.08782 | 14227 ft | 334 kts | 210° |
| 2026-05-04 04:31 | 25.82360 | -80.09976 | 14827 ft | 336 kts | 211° |
| 2026-05-04 04:31 | 25.80278 | -80.11181 | 15430 ft | 338 kts | 211° |
| 2026-05-04 04:31 | 25.78184 | -80.12396 | 16043 ft | 341 kts | 211° |
| 2026-05-04 04:31 | 25.76080 | -80.13620 | 16655 ft | 343 kts | 211° |
| 2026-05-04 04:32 | 25.73958 | -80.14853 | 17253 ft | 345 kts | 211° |
| 2026-05-04 04:32 | 25.71825 | -80.16095 | 17853 ft | 348 kts | 212° |
| 2026-05-04 04:32 | 25.69681 | -80.17345 | 18446 ft | 350 kts | 212° |
| 2026-05-04 04:32 | 25.67518 | -80.18601 | 18980 ft | 351 kts | 212° |
| 2026-05-04 04:33 | 25.65343 | -80.19861 | 19495 ft | 354 kts | 212° |
| 2026-05-04 04:33 | 25.63156 | -80.21127 | 19913 ft | 356 kts | 212° |
| 2026-05-04 04:33 | 25.60958 | -80.22400 | 20011 ft | 357 kts | 212° |
| 2026-05-04 04:33 | 25.59511 | -80.23239 | 20042 ft | 353 kts | 212° |
| 2026-05-04 04:34 | 25.57345 | -80.24489 | 20052 ft | 350 kts | 212° |
| 2026-05-04 04:34 | 25.55187 | -80.25736 | 20052 ft | 349 kts | 212° |
| 2026-05-04 04:34 | 25.53034 | -80.26982 | 20053 ft | 349 kts | 212° |
| 2026-05-04 04:34 | 25.50884 | -80.28227 | 20054 ft | 349 kts | 212° |
| 2026-05-04 04:35 | 25.48730 | -80.29477 | 20053 ft | 349 kts | 212° |
| 2026-05-04 04:35 | 25.46580 | -80.30724 | 20054 ft | 349 kts | 212° |
| 2026-05-04 04:35 | 25.44429 | -80.31971 | 20054 ft | 349 kts | 212° |
| 2026-05-04 04:35 | 25.42278 | -80.33216 | 20054 ft | 349 kts | 212° |
| 2026-05-04 04:36 | 25.40123 | -80.34461 | 20055 ft | 349 kts | 212° |
| 2026-05-04 04:36 | 25.37979 | -80.35695 | 20056 ft | 349 kts | 212° |
| 2026-05-04 04:36 | 25.35812 | -80.36943 | 20057 ft | 349 kts | 212° |
| 2026-05-04 04:36 | 25.33655 | -80.38184 | 20058 ft | 350 kts | 212° |
| 2026-05-04 04:37 | 25.27179 | -80.41916 | 20036 ft | 350 kts | 212° |
| 2026-05-04 04:37 | 25.25016 | -80.43163 | 20037 ft | 351 kts | 212° |
| 2026-05-04 04:38 | 25.22785 | -80.44277 | 20035 ft | 355 kts | 204° |
| 2026-05-04 04:38 | 25.20408 | -80.45068 | 20033 ft | 357 kts | 202° |
| 2026-05-04 04:38 | 25.18023 | -80.45843 | 20035 ft | 357 kts | 202° |
| 2026-05-04 04:38 | 25.15638 | -80.46620 | 20037 ft | 357 kts | 202° |
| 2026-05-04 04:39 | 25.13253 | -80.47399 | 20039 ft | 358 kts | 202° |
| 2026-05-04 04:39 | 25.10866 | -80.48176 | 20041 ft | 358 kts | 202° |
| 2026-05-04 04:39 | 25.08479 | -80.48954 | 20042 ft | 358 kts | 202° |
| 2026-05-04 04:39 | 25.06094 | -80.49734 | 20043 ft | 358 kts | 202° |
| 2026-05-04 04:40 | 25.03709 | -80.50517 | 20044 ft | 358 kts | 202° |
| 2026-05-04 04:40 | 25.01324 | -80.51302 | 20031 ft | 358 kts | 202° |
| 2026-05-04 04:40 | 24.98935 | -80.52085 | 20030 ft | 358 kts | 201° |
| 2026-05-04 04:40 | 24.96545 | -80.52865 | 20030 ft | 359 kts | 201° |
| 2026-05-04 04:41 | 24.94150 | -80.53643 | 20031 ft | 359 kts | 201° |
| 2026-05-04 04:41 | 24.91753 | -80.54421 | 20033 ft | 359 kts | 202° |
| 2026-05-04 04:41 | 24.89353 | -80.55203 | 20034 ft | 360 kts | 202° |
| 2026-05-04 04:41 | 24.86972 | -80.56017 | 19934 ft | 353 kts | 207° |
| 2026-05-04 04:42 | 24.84918 | -80.57328 | 19704 ft | 334 kts | 223° |
| 2026-05-04 04:42 | 24.83331 | -80.59113 | 19470 ft | 321 kts | 235° |
| 2026-05-04 04:42 | 24.82167 | -80.61166 | 19250 ft | 314 kts | 246° |
| 2026-05-04 04:42 | 24.81412 | -80.63410 | 19017 ft | 312 kts | 256° |
| 2026-05-04 04:43 | 24.81064 | -80.65759 | 18791 ft | 311 kts | 262° |
| 2026-05-04 04:43 | 24.80802 | -80.68123 | 18497 ft | 311 kts | 262° |
| 2026-05-04 04:43 | 24.80535 | -80.70507 | 17870 ft | 315 kts | 262° |
| 2026-05-04 04:43 | 24.80264 | -80.72894 | 17433 ft | 313 kts | 262° |
| 2026-05-04 04:44 | 24.79993 | -80.75256 | 17039 ft | 310 kts | 262° |
| 2026-05-04 04:44 | 24.79726 | -80.77598 | 16654 ft | 307 kts | 262° |
| 2026-05-04 04:44 | 24.79463 | -80.79922 | 16269 ft | 305 kts | 262° |
| 2026-05-04 04:44 | 24.79203 | -80.82226 | 15887 ft | 303 kts | 262° |
| 2026-05-04 04:45 | 24.78947 | -80.84517 | 15505 ft | 301 kts | 262° |
| 2026-05-04 04:45 | 24.78691 | -80.86796 | 15127 ft | 299 kts | 262° |
| 2026-05-04 04:45 | 24.78432 | -80.89066 | 14751 ft | 298 kts | 262° |
| 2026-05-04 04:47 | 24.76618 | -81.02413 | 12467 ft | 289 kts | 247° |
| 2026-05-04 04:47 | 24.75666 | -81.04319 | 12287 ft | 281 kts | 239° |
| 2026-05-04 04:47 | 24.74641 | -81.06145 | 11924 ft | 281 kts | 239° |
| 2026-05-04 04:47 | 24.73622 | -81.07970 | 11472 ft | 279 kts | 239° |
| 2026-05-04 04:48 | 24.72607 | -81.09787 | 10968 ft | 278 kts | 239° |
| 2026-05-04 04:49 | 24.68735 | -81.16719 | 9461 ft | 254 kts | 239° |
| 2026-05-04 04:49 | 24.67822 | -81.18348 | 9124 ft | 247 kts | 239° |
| 2026-05-04 04:49 | 24.66924 | -81.19944 | 8793 ft | 245 kts | 239° |
| 2026-05-04 04:49 | 24.66042 | -81.21513 | 8466 ft | 245 kts | 239° |
| 2026-05-04 04:50 | 24.65140 | -81.23118 | 8135 ft | 248 kts | 239° |
| 2026-05-04 04:50 | 24.64103 | -81.24628 | 7895 ft | 248 kts | 230° |
| 2026-05-04 04:50 | 24.62929 | -81.26115 | 7793 ft | 264 kts | 230° |
| 2026-05-04 04:50 | 24.61721 | -81.27653 | 7675 ft | 266 kts | 230° |
| 2026-05-04 04:51 | 24.60511 | -81.29194 | 7534 ft | 266 kts | 230° |
| 2026-05-04 04:51 | 24.59304 | -81.30735 | 7409 ft | 266 kts | 230° |
| 2026-05-04 04:51 | 24.58099 | -81.32272 | 7278 ft | 265 kts | 230° |
| 2026-05-04 04:51 | 24.56893 | -81.33809 | 7150 ft | 266 kts | 231° |
| 2026-05-04 04:52 | 24.55768 | -81.35409 | 7019 ft | 265 kts | 240° |
| 2026-05-04 04:52 | 24.54920 | -81.37195 | 6896 ft | 263 kts | 242° |
| 2026-05-04 04:52 | 24.54079 | -81.38988 | 6767 ft | 264 kts | 243° |
| 2026-05-04 04:52 | 24.53232 | -81.40776 | 6633 ft | 264 kts | 243° |
| 2026-05-04 04:53 | 24.52384 | -81.42565 | 6508 ft | 264 kts | 243° |
| 2026-05-04 04:53 | 24.51538 | -81.44350 | 6378 ft | 263 kts | 243° |
| 2026-05-04 04:53 | 24.50694 | -81.46130 | 6243 ft | 263 kts | 243° |
| 2026-05-04 04:53 | 24.49850 | -81.47908 | 6114 ft | 262 kts | 243° |
| 2026-05-04 04:54 | 24.49007 | -81.49682 | 5982 ft | 262 kts | 243° |
| 2026-05-04 04:54 | 24.48163 | -81.51457 | 5856 ft | 263 kts | 243° |
| 2026-05-04 04:54 | 24.47319 | -81.53234 | 5735 ft | 263 kts | 243° |
| 2026-05-04 04:54 | 24.46642 | -81.55084 | 5592 ft | 261 kts | 257° |
| 2026-05-04 04:55 | 24.46442 | -81.57054 | 5482 ft | 262 kts | 269° |
| 2026-05-04 04:55 | 24.46434 | -81.59060 | 5348 ft | 263 kts | 269° |
| 2026-05-04 04:55 | 24.46421 | -81.61058 | 5222 ft | 261 kts | 268° |
| 2026-05-04 04:55 | 24.46402 | -81.63043 | 5095 ft | 259 kts | 268° |
| 2026-05-04 04:56 | 24.46381 | -81.64998 | 4973 ft | 252 kts | 268° |
| 2026-05-04 04:56 | 24.46362 | -81.66885 | 4867 ft | 243 kts | 268° |
| 2026-05-04 04:56 | 24.46345 | -81.68696 | 4759 ft | 232 kts | 268° |
| 2026-05-04 04:56 | 24.46330 | -81.70422 | 4659 ft | 221 kts | 268° |
| 2026-05-04 04:57 | 24.46315 | -81.72073 | 4561 ft | 211 kts | 268° |
| 2026-05-04 04:57 | 24.46301 | -81.73663 | 4467 ft | 208 kts | 268° |
| 2026-05-04 04:57 | 24.46287 | -81.75250 | 4358 ft | 208 kts | 268° |
| 2026-05-04 04:57 | 24.46274 | -81.76834 | 4256 ft | 208 kts | 268° |
| 2026-05-04 04:58 | 24.46258 | -81.78429 | 4155 ft | 209 kts | 268° |
| 2026-05-04 04:58 | 24.46241 | -81.80013 | 4051 ft | 206 kts | 268° |
| 2026-05-04 04:58 | 24.46225 | -81.81585 | 3950 ft | 206 kts | 269° |
| 2026-05-04 04:58 | 24.46207 | -81.83156 | 3851 ft | 205 kts | 269° |
| 2026-05-04 04:59 | 24.46191 | -81.84695 | 3744 ft | 197 kts | 269° |
| 2026-05-04 04:59 | 24.46177 | -81.86143 | 3651 ft | 189 kts | 269° |
| 2026-05-04 04:59 | 24.46162 | -81.87570 | 3561 ft | 186 kts | 269° |
| 2026-05-04 04:59 | 24.46146 | -81.88984 | 3470 ft | 185 kts | 269° |
| 2026-05-04 05:00 | 24.46130 | -81.90397 | 3380 ft | 185 kts | 269° |
| 2026-05-04 05:00 | 24.46114 | -81.91818 | 3291 ft | 188 kts | 269° |
| 2026-05-04 05:00 | 24.46138 | -81.94689 | 3091 ft | 191 kts | 282° |
| 2026-05-04 05:01 | 24.46763 | -81.95961 | 2998 ft | 194 kts | 314° |
| 2026-05-04 05:01 | 24.47943 | -81.96658 | 2906 ft | 195 kts | 346° |
| 2026-05-04 05:01 | 24.49267 | -81.96716 | 2789 ft | 184 kts | 355° |
| 2026-05-04 05:01 | 24.50508 | -81.96722 | 2668 ft | 172 kts | 355° |
| 2026-05-04 05:02 | 24.51652 | -81.96732 | 2582 ft | 155 kts | 353° |
| 2026-05-04 05:02 | 24.52703 | -81.96744 | 2486 ft | 148 kts | 354° |
| 2026-05-04 05:02 | 24.53723 | -81.96637 | 2399 ft | 149 kts | 14° |
| 2026-05-04 05:02 | 24.54631 | -81.96076 | 2313 ft | 151 kts | 38° |
| 2026-05-04 05:03 | 24.55247 | -81.95120 | 2227 ft | 159 kts | 65° |
| 2026-05-04 05:03 | 24.55435 | -81.93937 | 2132 ft | 160 kts | 91° |
| 2026-05-04 05:04 | 24.55464 | -81.90357 | 1878 ft | 155 kts | 86° |
| 2026-05-04 05:04 | 24.55477 | -81.89184 | 1792 ft | 155 kts | 87° |
| 2026-05-04 05:04 | 24.55490 | -81.87977 | 1723 ft | 159 kts | 88° |
| 2026-05-04 05:06 | 24.55590 | -81.79613 | 551 ft | 151 kts | 89° |
| 2026-05-04 05:06 | 24.55593 | -81.78479 | 330 ft | 146 kts | 89° |
| 2026-05-04 05:06 | 24.55603 | -81.77397 | 138 ft | 142 kts | 90° |
| 2026-05-04 05:07 | 24.55614 | -81.76321 | 11 ft | 129 kts | 95° |
| 2026-05-04 05:07 | 24.55616 | -81.75600 | 15 ft | 54 kts | 91° |
| 2026-05-04 05:07 | 24.55617 | -81.75337 | 14 ft | 22 kts | 90° |
| 2026-05-04 05:09 | 24.55463 | -81.75460 | 12 ft | 4 kts | 171° |
| 2026-05-04 05:09 | 24.55447 | -81.75460 | 12 ft | 2 kts | 179° |
| 2026-05-04 05:10 | 24.55439 | -81.75460 | 12 ft | 1 kts | 179° |